createdAt,value
2018-10-17T00:01:51.033Z,58.67
2018-10-17T00:03:55.943Z,59.22
2018-10-17T00:06:00.848Z,59.15
2018-10-17T00:08:06.316Z,59.39
2018-10-17T00:10:12.145Z,59.09
2018-10-17T00:12:17.229Z,59.27
2018-10-17T00:14:22.248Z,59.18
2018-10-17T00:16:27.066Z,58.83
2018-10-17T00:18:31.939Z,58.87
2018-10-17T00:20:36.952Z,59.28
2018-10-17T00:22:41.784Z,59.26
2018-10-17T00:24:46.685Z,59.53
2018-10-17T00:26:51.505Z,59.51
2018-10-17T00:28:56.423Z,59.62
2018-10-17T00:31:01.221Z,59.56
2018-10-17T00:33:06.024Z,59.87
2018-10-17T00:35:11.306Z,59.75
2018-10-17T00:37:16.224Z,59.75
2018-10-17T00:39:21.100Z,59.63
2018-10-17T00:41:27.006Z,59.41
2018-10-17T00:43:31.918Z,59.37
2018-10-17T00:45:36.953Z,59.31
2018-10-17T00:47:41.955Z,59.50
2018-10-17T00:49:46.924Z,58.98
2018-10-17T00:51:51.796Z,58.99
2018-10-17T00:53:56.667Z,59.17
2018-10-17T00:56:01.676Z,59.23
2018-10-17T00:58:06.937Z,59.15
2018-10-17T01:00:12.016Z,59.17
2018-10-17T01:02:16.976Z,59.50
2018-10-17T01:04:21.843Z,59.36
2018-10-17T01:06:26.717Z,59.07
2018-10-17T01:08:31.733Z,59.17
2018-10-17T01:10:36.509Z,58.98
2018-10-17T01:12:41.329Z,59.23
2018-10-17T01:14:46.274Z,58.98
2018-10-17T01:16:51.213Z,58.84
2018-10-17T01:18:56.187Z,59.00
2018-10-17T01:21:01.093Z,58.37
2018-10-17T01:23:06.227Z,58.25
2018-10-17T01:25:11.097Z,58.62
2018-10-17T01:27:15.965Z,58.64
2018-10-17T01:29:20.831Z,58.52
2018-10-17T01:31:27.480Z,58.52
2018-10-17T01:33:32.327Z,58.74
2018-10-17T01:35:37.405Z,59.05
2018-10-17T01:37:42.405Z,58.95
2018-10-17T01:39:47.327Z,59.48
2018-10-17T01:41:52.190Z,59.20
2018-10-17T01:43:57.466Z,59.12
2018-10-17T01:46:02.261Z,59.37
2018-10-17T01:48:07.592Z,59.18
2018-10-17T01:50:12.500Z,58.84
2018-10-17T01:52:17.255Z,58.88
2018-10-17T01:54:22.161Z,59.12
2018-10-17T01:56:27.513Z,59.29
2018-10-17T01:58:32.373Z,59.24
2018-10-17T02:00:37.589Z,59.21
2018-10-17T02:02:42.396Z,59.53
2018-10-17T02:04:47.176Z,59.54
2018-10-17T02:06:51.994Z,59.63
2018-10-17T02:08:56.871Z,59.87
2018-10-17T02:11:05.108Z,59.35
2018-10-17T02:13:10.062Z,59.27
2018-10-17T02:15:14.977Z,59.65
2018-10-17T02:17:20.079Z,59.76
2018-10-17T02:19:25.049Z,59.72
2018-10-17T02:21:29.928Z,59.58
2018-10-17T02:23:34.879Z,59.12
2018-10-17T02:25:39.874Z,59.37
2018-10-17T02:27:44.628Z,58.88
2018-10-17T02:29:49.507Z,59.17
2018-10-17T02:31:54.405Z,59.63
2018-10-17T02:33:59.259Z,59.31
2018-10-17T02:36:04.090Z,59.19
2018-10-17T02:38:09.004Z,59.34
2018-10-17T02:40:13.965Z,59.72
2018-10-17T02:42:18.885Z,59.48
2018-10-17T02:44:23.900Z,59.39
2018-10-17T02:46:28.817Z,59.65
2018-10-17T02:48:33.805Z,60.09
2018-10-17T02:50:38.874Z,59.96
2018-10-17T02:52:43.951Z,60.08
2018-10-17T02:54:48.932Z,60.38
2018-10-17T02:56:54.107Z,60.34
2018-10-17T02:58:59.101Z,60.57
2018-10-17T03:01:04.118Z,60.50
2018-10-17T03:03:08.966Z,60.56
2018-10-17T03:05:13.849Z,60.99
2018-10-17T03:07:18.848Z,60.93
2018-10-17T03:09:23.701Z,60.84
2018-10-17T03:11:28.429Z,61.05
2018-10-17T03:13:33.353Z,60.98
2018-10-17T03:15:38.147Z,60.89
2018-10-17T03:17:42.942Z,61.45
2018-10-17T03:19:47.925Z,61.20
2018-10-17T03:21:52.941Z,61.63
2018-10-17T03:23:57.762Z,61.58
2018-10-17T03:26:02.755Z,61.75
2018-10-17T03:28:07.712Z,61.67
2018-10-17T03:30:12.693Z,61.94
2018-10-17T03:32:17.725Z,62.08
2018-10-17T03:34:22.574Z,61.97
2018-10-17T03:36:27.791Z,62.37
2018-10-17T03:38:32.753Z,62.20
2018-10-17T03:40:37.781Z,62.32
2018-10-17T03:42:42.565Z,62.49
2018-10-17T03:44:47.649Z,62.78
2018-10-17T03:46:52.523Z,62.46
2018-10-17T03:48:57.347Z,62.37
2018-10-17T03:51:02.096Z,62.52
2018-10-17T03:53:06.921Z,62.69
2018-10-17T03:55:11.795Z,62.35
2018-10-17T03:57:16.543Z,62.77
2018-10-17T03:59:21.483Z,62.45
2018-10-17T04:01:26.029Z,62.68
2018-10-17T04:03:30.856Z,62.56
2018-10-17T04:05:35.619Z,62.52
2018-10-17T04:07:40.527Z,62.54
2018-10-17T04:09:46.169Z,62.49
2018-10-17T04:11:51.060Z,62.51
2018-10-17T04:13:56.101Z,62.60
2018-10-17T04:16:00.785Z,62.30
2018-10-17T04:18:05.751Z,62.42
2018-10-17T04:20:17.103Z,62.23
2018-10-17T04:22:21.938Z,61.89
2018-10-17T04:24:26.702Z,62.11
2018-10-17T04:26:31.552Z,61.89
2018-10-17T04:28:36.229Z,61.41
2018-10-17T04:30:41.096Z,61.36
2018-10-17T04:34:51.587Z,61.35
2018-10-17T04:36:56.288Z,61.46
2018-10-17T04:39:00.960Z,61.65
2018-10-17T04:41:07.749Z,61.74
2018-10-17T04:43:12.604Z,61.46
2018-10-17T04:45:17.426Z,61.46
2018-10-17T04:47:22.453Z,61.74
2018-10-17T04:49:27.211Z,61.75
2018-10-17T04:51:32.802Z,61.48
2018-10-17T04:53:37.842Z,61.96
2018-10-17T04:55:42.808Z,61.96
2018-10-17T04:57:47.979Z,61.72
2018-10-17T04:59:52.971Z,62.03
2018-10-17T05:01:57.835Z,61.55
2018-10-17T05:04:03.001Z,61.81
2018-10-17T05:06:07.949Z,61.90
2018-10-17T05:08:12.888Z,62.32
2018-10-17T05:10:17.947Z,62.17
2018-10-17T05:12:23.678Z,62.22
2018-10-17T05:14:28.498Z,61.07
2018-10-17T05:16:36.651Z,61.29
2018-10-17T05:18:41.714Z,61.44
2018-10-17T05:20:46.893Z,61.33
2018-10-17T05:22:51.860Z,61.47
2018-10-17T05:24:57.017Z,61.58
2018-10-17T05:27:02.014Z,61.74
2018-10-17T05:29:07.116Z,62.07
2018-10-17T05:31:12.191Z,61.94
2018-10-17T05:33:17.078Z,62.14
2018-10-17T05:35:22.044Z,62.25
2018-10-17T05:37:27.073Z,62.21
2018-10-17T05:39:32.045Z,62.30
2018-10-17T05:41:38.520Z,62.35
2018-10-17T05:43:43.924Z,62.61
2018-10-17T05:45:48.911Z,63.31
2018-10-17T05:47:53.962Z,63.19
2018-10-17T05:49:59.090Z,63.43
2018-10-17T05:52:04.191Z,63.16
2018-10-17T05:54:09.370Z,63.36
2018-10-17T05:56:14.460Z,63.17
2018-10-17T05:58:19.597Z,63.49
2018-10-17T06:00:24.613Z,63.84
2018-10-17T06:02:32.217Z,63.50
2018-10-17T06:04:37.398Z,63.87
2018-10-17T06:06:42.667Z,63.73
2018-10-17T06:08:47.829Z,63.75
2018-10-17T06:10:52.777Z,64.02
2018-10-17T06:12:57.786Z,64.17
2018-10-17T06:15:02.809Z,64.13
2018-10-17T06:17:07.849Z,63.98
2018-10-17T06:19:13.201Z,63.89
2018-10-17T06:21:18.804Z,63.86
2018-10-17T06:23:24.358Z,64.09
2018-10-17T06:25:30.094Z,63.89
2018-10-17T06:27:35.102Z,64.02
2018-10-17T06:29:39.965Z,64.23
2018-10-17T06:31:44.990Z,63.99
2018-10-17T06:33:54.078Z,63.87
2018-10-17T06:35:59.079Z,64.33
2018-10-17T06:38:03.971Z,63.97
2018-10-17T06:40:10.982Z,64.08
2018-10-17T06:42:16.513Z,63.90
2018-10-17T06:44:21.515Z,63.24
2018-10-17T06:46:26.487Z,63.38
2018-10-17T06:48:31.266Z,63.79
2018-10-17T06:50:36.338Z,63.62
2018-10-17T06:52:41.359Z,63.94
2018-10-17T06:54:47.320Z,63.52
2018-10-17T06:56:52.222Z,63.61
2018-10-17T06:58:58.188Z,63.84
2018-10-17T07:01:05.203Z,63.87
2018-10-17T07:03:10.882Z,63.74
2018-10-17T07:05:15.652Z,63.84
2018-10-17T07:07:20.763Z,64.03
2018-10-17T07:09:25.816Z,63.88
2018-10-17T07:11:31.078Z,63.98
2018-10-17T07:13:36.115Z,63.82
2018-10-17T07:15:41.117Z,63.68
2018-10-17T07:17:45.886Z,63.19
2018-10-17T07:19:50.614Z,63.50
2018-10-17T07:21:55.913Z,62.84
2018-10-17T07:24:00.845Z,62.83
2018-10-17T07:26:05.625Z,62.98
2018-10-17T07:28:10.658Z,62.54
2018-10-17T07:30:15.842Z,62.31
2018-10-17T07:32:21.842Z,62.51
2018-10-17T07:34:26.905Z,62.69
2018-10-17T07:36:31.826Z,62.25
2018-10-17T07:38:36.844Z,62.56
2018-10-17T07:40:41.982Z,62.67
2018-10-17T07:42:46.841Z,62.42
2018-10-17T07:44:51.462Z,62.69
2018-10-17T07:46:57.971Z,62.41
2018-10-17T07:49:03.052Z,62.01
2018-10-17T07:51:07.563Z,62.05
2018-10-17T07:53:12.487Z,62.15
2018-10-17T07:55:17.683Z,62.29
2018-10-17T07:57:22.345Z,62.49
2018-10-17T07:59:27.013Z,61.98
2018-10-17T08:01:32.334Z,62.29
2018-10-17T08:03:37.130Z,62.32
2018-10-17T08:05:41.959Z,61.94
2018-10-17T08:07:46.594Z,61.84
2018-10-17T08:09:51.405Z,61.70
2018-10-17T08:11:56.137Z,61.80
2018-10-17T08:14:00.893Z,61.72
2018-10-17T08:16:06.108Z,60.95
2018-10-17T08:18:10.983Z,60.61
2018-10-17T08:20:15.615Z,59.73
2018-10-17T08:22:20.663Z,59.82
2018-10-17T08:24:25.492Z,59.48
2018-10-17T08:26:31.465Z,59.51
2018-10-17T08:28:36.974Z,59.11
2018-10-17T08:30:41.599Z,59.06
2018-10-17T08:32:46.266Z,58.96
2018-10-17T08:34:50.927Z,59.35
2018-10-17T08:36:56.164Z,59.22
2018-10-17T08:39:00.602Z,59.06
2018-10-17T08:41:05.659Z,59.26
2018-10-17T08:43:10.272Z,58.87
2018-10-17T08:45:16.380Z,59.37
2018-10-17T08:47:21.271Z,59.12
2018-10-17T08:49:26.373Z,59.04
2018-10-17T08:51:31.508Z,58.79
2018-10-17T08:53:36.280Z,58.91
2018-10-17T08:55:42.410Z,58.98
2018-10-17T08:57:47.281Z,58.91
2018-10-17T08:59:52.310Z,58.33
2018-10-17T09:01:59.337Z,58.11
2018-10-17T09:04:04.094Z,57.68
2018-10-17T09:06:08.975Z,58.08
2018-10-17T09:08:13.811Z,58.23
2018-10-17T09:10:18.491Z,58.24
2018-10-17T09:12:23.365Z,57.75
2018-10-17T09:14:28.222Z,57.76
2018-10-17T09:16:33.049Z,57.65
2018-10-17T09:18:37.786Z,57.75
2018-10-17T09:20:42.898Z,57.17
2018-10-17T09:22:47.503Z,56.11
2018-10-17T09:24:52.364Z,56.72
2018-10-17T09:26:57.090Z,56.09
2018-10-17T09:29:01.989Z,55.65
2018-10-17T09:31:07.062Z,55.83
2018-10-17T09:33:12.038Z,56.17
2018-10-17T09:35:17.095Z,56.04
2018-10-17T09:37:21.818Z,55.76
2018-10-17T09:39:26.621Z,55.94
2018-10-17T09:41:31.658Z,55.81
2018-10-17T09:43:36.291Z,55.06
2018-10-17T09:45:41.163Z,55.67
2018-10-17T09:47:46.338Z,55.34
2018-10-17T09:49:51.247Z,55.65
2018-10-17T09:51:56.069Z,55.25
2018-10-17T09:54:00.774Z,55.27
2018-10-17T09:58:03.730Z,55.17
2018-10-17T10:00:14.426Z,54.64
2018-10-17T10:02:19.311Z,54.16
2018-10-17T10:04:24.291Z,54.20
2018-10-17T10:06:29.001Z,54.11
2018-10-17T10:08:33.904Z,53.72
2018-10-17T10:10:38.909Z,53.52
2018-10-17T10:12:43.816Z,53.56
2018-10-17T10:14:48.657Z,53.30
2018-10-17T10:16:53.397Z,53.07
2018-10-17T10:18:58.279Z,52.46
2018-10-17T10:21:02.950Z,51.85
2018-10-17T10:23:08.223Z,52.40
2018-10-17T10:25:13.394Z,52.48
2018-10-17T10:27:19.096Z,52.27
2018-10-17T10:29:23.953Z,51.86
2018-10-17T10:31:29.334Z,51.42
2018-10-17T10:33:34.128Z,50.31
2018-10-17T10:35:38.832Z,50.23
2018-10-17T10:37:43.482Z,50.25
2018-10-17T10:39:48.859Z,49.66
2018-10-17T10:41:53.759Z,48.92
2018-10-17T10:43:58.979Z,49.27
2018-10-17T10:46:03.856Z,49.42
2018-10-17T10:48:08.861Z,49.22
2018-10-17T10:50:14.273Z,49.95
2018-10-17T10:52:19.181Z,49.81
2018-10-17T10:54:29.310Z,49.12
2018-10-17T10:56:34.144Z,49.24
2018-10-17T10:58:38.870Z,48.33
2018-10-17T11:00:44.891Z,48.62
2018-10-17T11:02:49.802Z,48.58
2018-10-17T11:04:54.658Z,48.36
2018-10-17T11:06:59.261Z,47.12
2018-10-17T11:09:04.148Z,47.66
2018-10-17T11:11:08.920Z,47.48
2018-10-17T11:13:13.772Z,47.27
2018-10-17T11:15:18.429Z,48.12
2018-10-17T11:17:23.283Z,48.07
2018-10-17T11:19:28.167Z,47.88
2018-10-17T11:21:33.136Z,47.81
2018-10-17T11:23:38.252Z,47.27
2018-10-17T11:25:43.286Z,47.52
2018-10-17T11:27:48.051Z,47.44
2018-10-17T11:29:52.743Z,46.93
2018-10-17T11:31:57.457Z,46.34
2018-10-17T11:34:02.252Z,46.66
2018-10-17T11:36:07.083Z,46.92
2018-10-17T11:38:11.744Z,46.77
2018-10-17T11:40:16.558Z,46.64
2018-10-17T11:42:21.334Z,45.99
2018-10-17T11:44:26.156Z,45.35
2018-10-17T11:46:30.956Z,44.99
2018-10-17T11:48:35.639Z,45.49
2018-10-17T11:50:40.642Z,45.44
2018-10-17T11:52:45.402Z,45.57
2018-10-17T11:54:50.144Z,45.72
2018-10-17T11:56:54.879Z,45.91
2018-10-17T11:58:59.762Z,45.28
2018-10-17T12:01:04.635Z,44.72
2018-10-17T12:03:09.698Z,44.46
2018-10-17T12:05:15.960Z,44.45
2018-10-17T12:07:20.921Z,44.87
2018-10-17T12:09:25.585Z,44.36
2018-10-17T12:11:31.406Z,44.04
2018-10-17T12:13:36.321Z,43.94
2018-10-17T12:15:44.609Z,43.39
2018-10-17T12:17:49.397Z,43.47
2018-10-17T12:19:54.384Z,42.79
2018-10-17T12:21:59.182Z,43.11
2018-10-17T12:24:04.127Z,43.08
2018-10-17T12:26:09.052Z,43.33
2018-10-17T12:28:13.986Z,43.33
2018-10-17T12:30:18.888Z,42.77
2018-10-17T12:32:23.571Z,42.80
2018-10-17T12:34:28.387Z,42.56
2018-10-17T12:36:33.276Z,42.39
2018-10-17T12:38:38.144Z,41.23
2018-10-17T12:40:43.063Z,41.21
2018-10-17T12:42:47.996Z,41.15
2018-10-17T12:44:53.384Z,41.40
2018-10-17T12:46:58.226Z,41.61
2018-10-17T12:49:03.005Z,41.45
2018-10-17T12:51:07.954Z,40.22
2018-10-17T12:53:12.772Z,40.55
2018-10-17T12:55:17.632Z,40.51
2018-10-17T12:57:22.326Z,40.41
2018-10-17T12:59:28.152Z,39.96
2018-10-17T13:01:33.136Z,40.17
2018-10-17T13:03:38.983Z,40.50
2018-10-17T13:05:43.798Z,40.25
2018-10-17T13:07:49.194Z,40.29
2018-10-17T13:09:53.878Z,40.35
2018-10-17T13:11:58.676Z,40.32
2018-10-17T13:14:03.749Z,39.94
2018-10-17T13:16:08.710Z,39.59
2018-10-17T13:18:13.604Z,39.56
2018-10-17T13:20:18.324Z,39.45
2018-10-17T13:22:23.358Z,39.86
2018-10-17T13:24:28.134Z,40.08
2018-10-17T13:26:32.980Z,39.48
2018-10-17T13:28:37.806Z,40.33
2018-10-17T13:30:42.548Z,40.40
2018-10-17T13:32:47.766Z,40.00
2018-10-17T13:34:52.503Z,39.67
2018-10-17T13:36:57.433Z,39.95
2018-10-17T13:39:02.453Z,39.99
2018-10-17T13:41:07.301Z,40.78
2018-10-17T13:43:12.105Z,40.82
2018-10-17T13:45:16.740Z,40.49
2018-10-17T13:47:21.622Z,40.09
2018-10-17T13:49:26.233Z,40.43
2018-10-17T13:51:31.212Z,40.46
2018-10-17T13:53:36.137Z,40.16
2018-10-17T13:55:41.001Z,39.97
2018-10-17T13:57:45.919Z,40.05
2018-10-17T13:59:50.923Z,40.37
2018-10-17T14:01:55.597Z,40.60
2018-10-17T14:04:00.384Z,40.28
2018-10-17T14:06:05.540Z,40.68
2018-10-17T14:08:10.464Z,40.81
2018-10-17T14:10:15.266Z,40.56
2018-10-17T14:12:20.123Z,39.82
2018-10-17T14:14:24.884Z,39.70
2018-10-17T14:16:29.681Z,39.31
2018-10-17T14:18:34.477Z,39.73
2018-10-17T14:20:39.557Z,39.83
2018-10-17T14:22:44.372Z,39.78
2018-10-17T14:24:49.423Z,40.08
2018-10-17T14:26:54.262Z,40.08
2018-10-17T14:28:58.933Z,39.74
2018-10-17T14:31:04.192Z,39.47
2018-10-17T14:33:09.105Z,39.74
2018-10-17T14:35:13.964Z,40.10
2018-10-17T14:37:18.745Z,39.83
2018-10-17T14:39:23.843Z,40.17
2018-10-17T14:41:28.520Z,40.67
2018-10-17T14:43:33.472Z,40.72
2018-10-17T14:45:38.225Z,40.43
2018-10-17T14:47:43.063Z,40.82
2018-10-17T14:49:47.837Z,40.44
2018-10-17T14:51:52.590Z,40.73
2018-10-17T14:53:57.592Z,40.41
2018-10-17T14:56:02.564Z,40.68
2018-10-17T14:58:07.937Z,40.51
2018-10-17T15:00:15.424Z,39.71
2018-10-17T15:02:20.275Z,39.67
2018-10-17T15:04:25.059Z,39.98
2018-10-17T15:06:29.836Z,40.51
2018-10-17T15:08:34.707Z,40.68
2018-10-17T15:10:39.659Z,40.60
2018-10-17T15:12:44.401Z,40.64
2018-10-17T15:14:50.350Z,40.67
2018-10-17T15:16:55.288Z,40.45
2018-10-17T15:19:00.129Z,40.04
2018-10-17T15:21:05.395Z,39.90
2018-10-17T15:23:10.440Z,40.03
2018-10-17T15:25:15.550Z,40.72
2018-10-17T15:27:20.507Z,41.07
2018-10-17T15:29:25.433Z,40.70
2018-10-17T15:31:30.487Z,40.22
2018-10-17T15:33:35.410Z,40.39
2018-10-17T15:35:40.433Z,40.63
2018-10-17T15:37:45.498Z,39.79
2018-10-17T15:39:50.558Z,40.34
2018-10-17T15:41:55.586Z,40.23
2018-10-17T15:44:00.671Z,40.84
2018-10-17T15:46:05.702Z,41.06
2018-10-17T15:48:10.782Z,40.55
2018-10-17T15:50:15.970Z,40.72
2018-10-17T15:52:20.757Z,41.31
2018-10-17T15:54:25.544Z,41.01
2018-10-17T15:56:31.053Z,41.24
2018-10-17T15:58:36.404Z,41.67
2018-10-17T16:00:41.334Z,41.84
2018-10-17T16:02:46.412Z,42.61
2018-10-17T16:04:51.617Z,42.89
2018-10-17T16:06:56.752Z,42.92
2018-10-17T16:09:01.636Z,43.74
2018-10-17T16:11:06.783Z,43.69
2018-10-17T16:13:11.842Z,44.28
2018-10-17T16:15:16.637Z,43.69
2018-10-17T16:17:21.450Z,44.15
2018-10-17T16:19:26.521Z,44.55
2018-10-17T16:21:31.863Z,45.08
2018-10-17T16:23:36.809Z,44.80
2018-10-17T16:25:41.783Z,45.16
2018-10-17T16:27:46.757Z,44.53
2018-10-17T16:29:51.932Z,45.40
2018-10-17T16:31:57.415Z,45.32
2018-10-17T16:34:02.476Z,45.88
2018-10-17T16:36:07.749Z,45.89
2018-10-17T16:38:13.040Z,46.13
2018-10-17T16:40:18.687Z,46.50
2018-10-17T16:42:23.734Z,46.68
2018-10-17T16:44:28.811Z,46.67
2018-10-17T16:46:33.993Z,47.52
2018-10-17T16:48:39.359Z,47.30
2018-10-17T16:50:44.647Z,48.04
2018-10-17T16:52:50.081Z,48.34
2018-10-17T16:54:55.219Z,48.53
2018-10-17T16:57:00.586Z,48.09
2018-10-17T16:59:05.805Z,48.22
2018-10-17T17:01:10.641Z,48.79
2018-10-17T17:03:16.655Z,48.79
2018-10-17T17:05:21.460Z,48.73
2018-10-17T17:07:26.549Z,48.89
2018-10-17T17:09:32.566Z,49.53
2018-10-17T17:11:37.407Z,49.90
2018-10-17T17:13:42.154Z,50.01
2018-10-17T17:15:46.945Z,49.79
2018-10-17T17:17:51.822Z,49.72
2018-10-17T17:19:56.546Z,49.88
2018-10-17T17:22:01.282Z,50.89
2018-10-17T17:24:06.427Z,50.50
2018-10-17T17:26:11.286Z,50.58
2018-10-17T17:28:16.192Z,51.15
2018-10-17T17:30:21.136Z,50.79
2018-10-17T17:32:26.074Z,50.38
2018-10-17T17:34:31.098Z,51.05
2018-10-17T17:36:35.849Z,51.73
2018-10-17T17:38:40.758Z,51.51
2018-10-17T17:40:49.796Z,52.20
2018-10-17T17:42:54.675Z,52.28
2018-10-17T17:44:59.547Z,52.35
2018-10-17T17:47:05.991Z,52.49
2018-10-17T17:49:10.918Z,52.53
2018-10-17T17:51:15.758Z,52.78
2018-10-17T17:53:20.490Z,52.94
2018-10-17T17:55:25.672Z,53.97
2018-10-17T17:57:30.751Z,53.92
2018-10-17T17:59:35.965Z,54.13
2018-10-17T18:01:40.966Z,54.97
2018-10-17T18:03:46.928Z,55.34
2018-10-17T18:05:51.875Z,55.08
2018-10-17T18:07:56.666Z,55.25
2018-10-17T18:10:01.487Z,55.46
2018-10-17T18:12:06.648Z,56.07
2018-10-17T18:14:12.413Z,55.61
2018-10-17T18:16:17.240Z,56.01
2018-10-17T18:18:22.459Z,56.51
2018-10-17T18:20:28.745Z,56.62
2018-10-17T18:22:34.668Z,56.72
2018-10-17T18:24:39.805Z,56.94
2018-10-17T18:26:46.287Z,56.82
2018-10-17T18:28:51.302Z,57.61
2018-10-17T18:30:56.427Z,57.83
2018-10-17T18:33:01.770Z,57.78
2018-10-17T18:35:07.737Z,57.58
2018-10-17T18:37:12.444Z,58.32
2018-10-17T18:39:17.603Z,58.25
2018-10-17T18:41:22.940Z,58.76
2018-10-17T18:43:29.436Z,58.98
2018-10-17T18:45:35.407Z,58.83
2018-10-17T18:47:41.400Z,59.42
2018-10-17T18:49:46.959Z,59.28
2018-10-17T18:51:51.858Z,59.70
2018-10-17T18:53:56.817Z,59.98
2018-10-17T18:56:01.939Z,59.77
2018-10-17T18:58:06.872Z,60.20
2018-10-17T19:00:13.223Z,60.03
2018-10-17T19:02:18.135Z,60.15
2018-10-17T19:04:23.204Z,60.33
2018-10-17T19:06:29.090Z,60.99
2018-10-17T19:08:35.037Z,60.83
2018-10-17T19:10:43.744Z,61.11
2018-10-17T19:12:48.877Z,61.33
2018-10-17T19:14:55.176Z,60.88
2018-10-17T19:17:00.318Z,61.44
2018-10-17T19:19:05.196Z,61.49
2018-10-17T19:21:13.465Z,61.69
2018-10-17T19:23:18.722Z,61.49
2018-10-17T19:25:25.368Z,61.61
2018-10-17T19:27:30.747Z,60.94
2018-10-17T19:29:40.285Z,61.28
2018-10-17T19:31:49.285Z,61.53
2018-10-17T19:33:57.893Z,61.96
2018-10-17T19:36:04.887Z,62.30
2018-10-17T19:38:10.159Z,62.44
2018-10-17T19:40:15.869Z,62.00
2018-10-17T19:42:22.583Z,62.50
2018-10-17T19:44:28.390Z,61.89
2018-10-17T19:46:35.934Z,61.79
2018-10-17T19:48:41.043Z,62.59
2018-10-17T19:50:46.260Z,62.43
2018-10-17T19:52:54.631Z,62.64
2018-10-17T19:55:01.596Z,62.87
2018-10-17T19:57:12.025Z,62.66
2018-10-17T19:59:17.797Z,62.90
2018-10-17T20:01:23.520Z,62.85
2018-10-17T20:03:29.499Z,62.32
2018-10-17T20:05:35.331Z,63.16
2018-10-17T20:07:40.764Z,63.67
2018-10-17T20:09:47.106Z,63.50
2018-10-17T20:11:52.469Z,63.61
2018-10-17T20:13:57.409Z,64.13
2018-10-17T20:16:03.371Z,64.26
2018-10-17T20:18:08.364Z,63.79
2018-10-17T20:20:13.741Z,64.01
2018-10-17T20:22:19.461Z,63.75
2018-10-17T20:24:24.264Z,63.38
2018-10-17T20:26:29.498Z,64.19
2018-10-17T20:28:34.962Z,63.88
2018-10-17T20:30:40.092Z,64.04
2018-10-17T20:32:45.151Z,64.38
2018-10-17T20:34:50.620Z,64.39
2018-10-17T20:36:56.038Z,64.61
2018-10-17T20:39:01.068Z,65.12
2018-10-17T20:41:06.147Z,64.95
2018-10-17T20:43:12.143Z,64.84
2018-10-17T20:45:17.337Z,65.53
2018-10-17T20:47:22.388Z,65.33
2018-10-17T20:49:27.565Z,65.16
2018-10-17T20:51:33.202Z,65.39
2018-10-17T20:53:38.400Z,65.65
2018-10-17T20:55:43.196Z,65.33
2018-10-17T20:57:48.066Z,65.76
2018-10-17T20:59:53.458Z,65.05
2018-10-17T21:01:58.535Z,65.48
2018-10-17T21:04:03.419Z,65.65
2018-10-17T21:06:08.352Z,66.15
2018-10-17T21:08:13.223Z,66.29
2018-10-17T21:10:18.115Z,66.23
2018-10-17T21:12:23.650Z,66.27
2018-10-17T21:14:28.902Z,66.62
2018-10-17T21:16:34.059Z,66.87
2018-10-17T21:18:39.037Z,66.33
2018-10-17T21:20:44.003Z,66.54
2018-10-17T21:22:48.941Z,66.74
2018-10-17T21:24:53.824Z,67.21
2018-10-17T21:26:58.765Z,67.50
2018-10-17T21:29:03.887Z,67.24
2018-10-17T21:31:08.660Z,67.19
2018-10-17T21:33:13.623Z,68.00
2018-10-17T21:35:18.419Z,67.32
2018-10-17T21:37:23.217Z,67.61
2018-10-17T21:39:28.006Z,67.89
2018-10-17T21:41:32.851Z,68.00
2018-10-17T21:43:37.759Z,67.76
2018-10-17T21:45:42.588Z,67.56
2018-10-17T21:47:47.414Z,67.32
2018-10-17T21:49:52.266Z,67.08
2018-10-17T21:51:57.041Z,67.54
2018-10-17T21:54:01.899Z,67.82
2018-10-17T21:56:06.952Z,67.69
2018-10-17T21:58:11.811Z,68.05
2018-10-17T22:00:16.775Z,67.93
2018-10-17T22:02:21.696Z,67.81
2018-10-17T22:04:26.492Z,68.36
2018-10-17T22:06:34.438Z,68.48
2018-10-17T22:08:41.333Z,67.52
2018-10-17T22:10:46.106Z,67.99
2018-10-17T22:12:52.200Z,68.45
2018-10-17T22:14:57.708Z,69.33
2018-10-17T22:17:07.033Z,69.64
2018-10-17T22:19:13.882Z,69.69
2018-10-17T22:21:21.772Z,69.31
2018-10-17T22:23:28.280Z,70.03
2018-10-17T22:25:34.223Z,70.05
2018-10-17T22:27:40.086Z,69.97
2018-10-17T22:29:44.824Z,69.91
2018-10-17T22:31:49.589Z,70.46
2018-10-17T22:33:55.315Z,70.31
2018-10-17T22:36:00.138Z,70.92
2018-10-17T22:38:13.322Z,70.79
2018-10-17T22:40:18.181Z,71.27
2018-10-17T22:42:22.945Z,71.29
2018-10-17T22:44:27.927Z,71.64
2018-10-17T22:46:32.633Z,71.99
2018-10-17T22:48:37.365Z,72.28
2018-10-17T22:50:42.102Z,71.88
2018-10-17T22:52:47.062Z,72.31
2018-10-17T22:54:52.903Z,72.44
2018-10-17T22:56:57.702Z,72.70
2018-10-17T22:59:02.468Z,72.16
2018-10-17T23:01:07.864Z,71.94
2018-10-17T23:03:12.646Z,72.28
2018-10-17T23:05:17.368Z,72.65
2018-10-17T23:07:22.393Z,72.25
2018-10-17T23:09:27.129Z,72.48
2018-10-17T23:11:31.813Z,72.90
2018-10-17T23:13:36.635Z,72.69
2018-10-17T23:15:41.493Z,73.14
2018-10-17T23:17:46.329Z,73.56
2018-10-17T23:19:51.230Z,72.96
2018-10-17T23:21:56.523Z,73.46
2018-10-17T23:24:01.436Z,73.64
2018-10-17T23:26:06.890Z,72.89
2018-10-17T23:28:11.637Z,72.70
2018-10-17T23:30:16.477Z,73.22
2018-10-17T23:32:21.179Z,73.28
2018-10-17T23:34:25.938Z,73.69
2018-10-17T23:36:30.780Z,72.60
2018-10-17T23:38:35.532Z,71.57
2018-10-17T23:40:40.278Z,72.07
2018-10-17T23:42:45.080Z,72.60
2018-10-17T23:44:49.911Z,72.68
2018-10-17T23:46:54.728Z,73.02
2018-10-17T23:48:59.453Z,73.19
2018-10-17T23:51:04.287Z,73.13
2018-10-17T23:53:09.382Z,73.42
2018-10-17T23:55:14.082Z,73.28
2018-10-17T23:57:18.947Z,73.37
2018-10-17T23:59:23.709Z,73.01
